TimePDT,TemperatureF,Dew PointF,Humidity,Sea Level PressureIn,VisibilityMPH,Wind Direction,Wind SpeedMPH,Gust SpeedMPH,PrecipitationIn,Events,Conditions,WindDirDegrees,DateUTC
12:53 AM,46.9,45.0,93,30.14,3.0,SE,3.5,-,N/A,,Clear,140,2013-03-12 07:53:00
1:11 AM,44.6,42.8,93,30.14,2.5,SE,4.6,-,N/A,,Clear,130,2013-03-12 08:11:00
1:40 AM,48.2,44.6,87,30.14,3.0,ESE,5.8,-,N/A,,Clear,120,2013-03-12 08:40:00
1:53 AM,46.9,45.0,93,30.15,3.0,ESE,5.8,-,N/A,,Clear,120,2013-03-12 08:53:00
2:53 AM,46.0,44.1,93,30.14,4.0,ESE,3.5,-,N/A,,Clear,110,2013-03-12 09:53:00
3:53 AM,45.0,43.0,93,30.13,1.8,NE,3.5,-,N/A,,Clear,50,2013-03-12 10:53:00
4:22 AM,44.6,44.6,100,30.12,0.5,Calm,Calm,-,N/A,Fog,Fog,0,2013-03-12 11:22:00
4:36 AM,42.8,41.0,93,30.12,0.2,Calm,Calm,-,N/A,Fog,Fog,0,2013-03-12 11:36:00
4:53 AM,44.1,43.0,96,30.13,0.2,Calm,Calm,-,N/A,Fog,Fog,0,2013-03-12 11:53:00
5:02 AM,44.6,42.8,93,30.13,0.5,Calm,Calm,-,N/A,Fog,Fog,0,2013-03-12 12:02:00
5:53 AM,41.0,39.9,96,30.13,0.2,Calm,Calm,-,N/A,Fog,Fog,0,2013-03-12 12:53:00
6:21 AM,39.2,39.2,100,30.12,0.2,Calm,Calm,-,N/A,Fog,Fog,0,2013-03-12 13:21:00
6:53 AM,42.1,39.9,92,30.14,0.2,Calm,Calm,-,N/A,Fog,Fog,0,2013-03-12 13:53:00
7:24 AM,42.8,41.0,93,30.13,0.5,Calm,Calm,-,N/A,Fog,Fog,0,2013-03-12 14:24:00
7:42 AM,42.8,41.0,93,30.14,1.5,Calm,Calm,-,N/A,,Scattered Clouds,0,2013-03-12 14:42:00
7:50 AM,42.8,42.8,100,30.14,2.5,Calm,Calm,-,N/A,,Scattered Clouds,0,2013-03-12 14:50:00
7:53 AM,42.1,42.1,100,30.15,3.0,Calm,Calm,-,N/A,,Partly Cloudy,0,2013-03-12 14:53:00
8:10 AM,44.6,44.6,100,30.15,1.8,Calm,Calm,-,N/A,,Clear,0,2013-03-12 15:10:00
8:41 AM,50.0,48.2,94,30.15,3.0,Calm,Calm,-,N/A,,Clear,0,2013-03-12 15:41:00
8:53 AM,51.1,46.9,86,30.17,5.0,Calm,Calm,-,N/A,,Clear,0,2013-03-12 15:53:00
9:53 AM,57.0,48.9,74,30.17,6.0,Calm,Calm,-,N/A,,Haze,0,2013-03-12 16:53:00
10:53 AM,63.0,50.0,63,30.17,7.0,Calm,Calm,-,N/A,,Clear,0,2013-03-12 17:53:00
11:53 AM,66.0,48.9,54,30.16,8.0,Calm,Calm,-,N/A,,Clear,0,2013-03-12 18:53:00
12:53 PM,68.0,50.0,52,30.14,7.0,South,3.5,-,N/A,,Clear,180,2013-03-12 19:53:00
1:53 PM,71.1,50.0,47,30.11,7.0,Variable,4.6,-,N/A,,Clear,0,2013-03-12 20:53:00
2:53 PM,73.0,50.0,44,30.09,7.0,Variable,3.5,-,N/A,,Clear,0,2013-03-12 21:53:00
3:53 PM,75.0,50.0,41,30.08,7.0,Variable,4.6,-,N/A,,Clear,0,2013-03-12 22:53:00
4:53 PM,77.0,46.0,33,30.06,10.0,Variable,4.6,-,N/A,,Clear,0,2013-03-12 23:53:00
5:53 PM,75.0,45.0,34,30.06,10.0,NW,5.8,-,N/A,,Clear,310,2013-03-13 00:53:00
6:53 PM,73.0,46.0,38,30.07,9.0,Calm,Calm,-,N/A,,Clear,0,2013-03-13 01:53:00
7:53 PM,62.1,48.0,60,30.09,9.0,West,3.5,-,N/A,,Clear,270,2013-03-13 02:53:00
8:53 PM,60.1,48.0,64,30.11,9.0,West,3.5,-,N/A,,Clear,270,2013-03-13 03:53:00
9:53 PM,57.0,48.0,72,30.14,9.0,Calm,Calm,-,N/A,,Clear,0,2013-03-13 04:53:00
10:53 PM,53.1,46.9,80,30.15,7.0,South,4.6,-,N/A,,Clear,190,2013-03-13 05:53:00